Antlers, Colorado
Current Conditions -  °F | °C
As of 5:53 AM on Saturday 01 Nov 2014 (Local Time) from KEEO Reporting Station
Clear Clear  
Wind Chill: 41°   Ceiling: Unl
Heat Index: 41°   Visibility: 10mi
Dew Point: 31°   Wind: 0mph
Humidity: 67%   Direction: NA
Pressure: 30"   Gusts: NA
Location:  39.7934°N, 108.135°W
Report Text: KEEO 011153Z AUTO 00000KT 10SM CLR 05/M01 A3000 RMK AO2 SLP114 T00501006 10067 20033 58008
Loading
Personal Weather Stations






























Interactive Weather Map
Tropical Storm Tracking
New forecast layout! Learn more

10-Day Weather Forecast

Advertisements
Track Severe Weather on mobile